| time (UTC) | temp F | wind direction | speed knots | gust knots | rain 1hr in | rain 24hr in | rain mn in | humidity % | barometer mb |
| 20260508060042 | 41 | 244 | 3.5 | 7.0 | 0.00 | 0.00 | 0.00 | 90 | 1014.3 |
| 20260508055617 | 41 | 280 | 4.3 | 6.1 | 0.00 | 0.00 | 0.00 | 89 | 1015.4 |
| 20260508055524 | 41 | 277 | 3.5 | 7.0 | 0.00 | 0.00 | 0.00 | 89 | 1015.4 |
| 20260508055027 | 41 | 284 | 3.5 | 6.1 | 0.00 | 0.00 | 0.00 | 89 | 1014.3 |
| 20260508054612 | 42 | 299 | 3.5 | 4.3 | 0.00 | 0.00 | 0.00 | 89 | 1015.4 |
| 20260508054520 | 42 | 310 | 3.5 | 5.2 | 0.00 | 0.00 | 0.00 | 89 | 1015.4 |
| 20260508054023 | 42 | 270 | 3.5 | 7.8 | 0.00 | 0.00 | 0.00 | 89 | 1014.3 |
| 20260508053601 | 42 | 262 | 3.5 | 4.3 | 0.00 | 0.00 | 0.00 | 88 | 1015.4 |
| 20260508053525 | 42 | 276 | 3.5 | 4.3 | 0.00 | 0.00 | 0.00 | 88 | 1015.4 |
| 20260508053027 | 42 | 293 | 4.3 | 7.0 | 0.00 | 0.00 | 0.00 | 87 | 1014.3 |
| 20260508052539 | 42 | 289 | 3.5 | 5.2 | 0.00 | 0.00 | 0.00 | 86 | 1015.4 |
| 20260508052521 | 42 | 265 | 3.5 | 5.2 | 0.00 | 0.00 | 0.00 | 86 | 1015.4 |
| 20260508052024 | 42 | 294 | 1.7 | 3.5 | 0.00 | 0.00 | 0.00 | 86 | 1014.3 |
| 20260508051628 | 42 | 281 | 3.5 | 4.3 | 0.00 | 0.00 | 0.00 | 87 | 1015.4 |
| 20260508051544 | 42 | 291 | 3.5 | 6.1 | 0.00 | 0.00 | 0.00 | 87 | 1015.4 |
| 20260508051020 | 42 | 241 | 2.6 | 5.2 | 0.00 | 0.00 | 0.00 | 88 | 1014.3 |
| 20260508050549 | 42 | 0.0 | 0.0 | 0.00 | 0.00 | 0.00 | 87 | 1015.4 | |
| 20260508050522 | 42 | 294 | 1.7 | 3.5 | 0.00 | 0.00 | 0.00 | 87 | 1015.4 |
| 20260508050025 | 42 | 289 | 3.5 | 5.2 | 0.00 | 0.00 | 0.00 | 87 | 1014.7 |
| 20260508045603 | 42 | 332 | 2.6 | 3.5 | 0.00 | 0.00 | 0.00 | 87 | 1015.4 |
| 20260508045519 | 42 | 328 | 1.7 | 3.5 | 0.00 | 0.00 | 0.00 | 87 | 1015.4 |
| 20260508045039 | 42 | 341 | 1.7 | 4.3 | 0.00 | 0.00 | 0.00 | 86 | 1014.7 |
| 20260508044559 | 42 | 337 | 2.6 | 2.6 | 0.00 | 0.00 | 0.00 | 86 | 1015.4 |
| 20260508044533 | 42 | 329 | 2.6 | 3.5 | 0.00 | 0.00 | 0.00 | 86 | 1015.4 |
| 20260508044036 | 42 | 324 | 3.5 | 6.1 | 0.00 | 0.00 | 0.00 | 86 | 1014.7 |
| 20260508043537 | 42 | 306 | 3.5 | 7.0 | 0.00 | 0.00 | 0.00 | 86 | 1015.4 |
| 20260508043022 | 42 | 319 | 3.5 | 5.2 | 0.00 | 0.00 | 0.00 | 86 | 1014.3 |
| 20260508042623 | 42 | 313 | 4.3 | 6.1 | 0.00 | 0.00 | 0.00 | 86 | 1015.4 |
| 20260508042534 | 42 | 319 | 5.2 | 7.0 | 0.00 | 0.00 | 0.00 | 86 | 1015.4 |
| 20260508042019 | 42 | 306 | 4.3 | 8.7 | 0.00 | 0.00 | 0.00 | 86 | 1014.3 |
| 20260508041539 | 42 | 326 | 3.5 | 4.3 | 0.00 | 0.00 | 0.00 | 86 | 1015.0 |
| 20260508041521 | 42 | 331 | 3.5 | 4.3 | 0.00 | 0.00 | 0.00 | 86 | 1015.4 |
| 20260508041024 | 42 | 322 | 6.1 | 8.7 | 0.00 | 0.00 | 0.00 | 86 | 1014.3 |
| 20260508040610 | 42 | 330 | 3.5 | 3.5 | 0.00 | 0.00 | 0.00 | 87 | 1015.0 |
| 20260508040526 | 42 | 322 | 3.5 | 5.2 | 0.00 | 0.00 | 0.00 | 87 | 1015.0 |
| 20260508040109 | 42 | 317 | 5.2 | 7.0 | 0.00 | 0.00 | 0.00 | 86 | 1014.3 |
| 20260508035551 | 42 | 320 | 3.5 | 7.8 | 0.00 | 0.00 | 0.00 | 87 | 1015.0 |
| 20260508035522 | 42 | 315 | 3.5 | 5.2 | 0.00 | 0.00 | 0.00 | 87 | 1015.0 |
| 20260508035043 | 42 | 310 | 3.5 | 5.2 | 0.00 | 0.00 | 0.00 | 87 | 1014.0 |
| 20260508034545 | 42 | 320 | 3.5 | 4.3 | 0.00 | 0.00 | 0.00 | 87 | 1015.0 |
| 20260508034539 | 42 | 325 | 4.3 | 5.2 | 0.00 | 0.00 | 0.00 | 87 | 1015.0 |
| 20260508034030 | 42 | 314 | 2.6 | 4.3 | 0.00 | 0.00 | 0.00 | 87 | 1014.0 |
| 20260508033552 | 42 | 342 | 1.7 | 2.6 | 0.00 | 0.00 | 0.00 | 88 | 1015.0 |
| 20260508033533 | 42 | 332 | 3.5 | 7.0 | 0.00 | 0.00 | 0.00 | 88 | 1015.0 |
| 20260508033107 | 42 | 330 | 3.5 | 4.3 | 0.00 | 0.00 | 0.00 | 89 | 1014.0 |
| 20260508032615 | 42 | 359 | 1.7 | 3.5 | 0.00 | 0.00 | 0.00 | 89 | 1015.0 |
| 20260508032031 | 42 | 349 | 1.7 | 3.5 | 0.00 | 0.00 | 0.00 | 89 | 1014.0 |
| 20260508031756 | 42 | 342 | 2.6 | 3.5 | 0.00 | 0.00 | 0.00 | 89 | 1014.7 |
| 20260508031551 | 42 | 0 | 1.7 | 3.5 | 0.00 | 0.00 | 0.00 | 89 | 1015.0 |
| 20260508031039 | 42 | 328 | 3.5 | 5.2 | 0.00 | 0.00 | 0.00 | 89 | 1014.0 |
| 20260508030559 | 42 | 326 | 2.6 | 4.3 | 0.00 | 0.00 | 0.00 | 89 | 1015.0 |
| 20260508030024 | 42 | 323 | 3.5 | 6.1 | 0.00 | 0.00 | 0.00 | 89 | 1014.0 |
| 20260508025746 | 42 | 320 | 4.3 | 5.2 | 0.00 | 0.00 | 0.00 | 89 | 1015.0 |
| 20260508025526 | 42 | 314 | 4.3 | 7.8 | 0.00 | 0.00 | 0.00 | 89 | 1015.0 |
| 20260508025020 | 42 | 317 | 6.1 | 9.6 | 0.00 | 0.00 | 0.00 | 89 | 1014.0 |
| 20260508024733 | 42 | 332 | 3.5 | 5.2 | 0.00 | 0.00 | 0.00 | 88 | 1015.0 |
| 20260508024543 | 42 | 321 | 4.3 | 8.7 | 0.00 | 0.00 | 0.00 | 88 | 1015.0 |
| 20260508024034 | 42 | 328 | 4.3 | 7.0 | 0.00 | 0.00 | 0.00 | 88 | 1014.0 |
| 20260508023704 | 42 | 329 | 2.6 | 3.5 | 0.00 | 0.00 | 0.00 | 88 | 1015.0 |
| 20260508023519 | 42 | 329 | 2.6 | 3.5 | 0.00 | 0.00 | 0.00 | 88 | 1015.0 |
| 20260508023030 | 42 | 317 | 3.5 | 7.0 | 0.00 | 0.00 | 0.00 | 88 | 1014.0 |
| 20260508022559 | 42 | 323 | 4.3 | 7.0 | 0.00 | 0.00 | 0.00 | 88 | 1015.0 |
| 20260508022524 | 42 | 321 | 4.3 | 6.1 | 0.00 | 0.00 | 0.00 | 88 | 1015.0 |
| 20260508022026 | 42 | 328 | 5.2 | 7.8 | 0.00 | 0.00 | 0.00 | 88 | 1014.0 |
| 20260508021546 | 42 | 334 | 3.5 | 5.2 | 0.00 | 0.00 | 0.00 | 89 | 1015.0 |
| 20260508021520 | 42 | 315 | 4.3 | 7.0 | 0.00 | 0.00 | 0.00 | 89 | 1015.0 |
| 20260508021043 | 42 | 318 | 4.3 | 7.8 | 0.00 | 0.00 | 0.00 | 89 | 1014.0 |
| 20260508020551 | 42 | 320 | 4.3 | 4.3 | 0.00 | 0.00 | 0.00 | 90 | 1015.0 |
| 20260508020525 | 42 | 316 | 4.3 | 7.8 | 0.00 | 0.00 | 0.00 | 90 | 1015.0 |
| 20260508020047 | 42 | 311 | 4.3 | 8.7 | 0.00 | 0.00 | 0.00 | 90 | 1014.0 |
| 20260508015724 | 42 | 296 | 5.2 | 5.2 | 0.00 | 0.00 | 0.00 | 90 | 1015.0 |
| 20260508015521 | 42 | 315 | 4.3 | 7.0 | 0.00 | 0.00 | 0.00 | 90 | 1015.0 |
| 20260508015033 | 42 | 307 | 5.2 | 9.6 | 0.00 | 0.00 | 0.00 | 90 | 1014.0 |
| 20260508014527 | 42 | 320 | 4.3 | 7.0 | 0.00 | 0.00 | 0.00 | 89 | 1015.0 |
| 20260508014020 | 42 | 312 | 5.2 | 7.8 | 0.00 | 0.00 | 0.00 | 89 | 1014.0 |
| 20260508013659 | 43 | 311 | 5.2 | 7.0 | 0.00 | 0.00 | 0.00 | 88 | 1015.0 |
| 20260508013522 | 43 | 314 | 5.2 | 7.8 | 0.00 | 0.00 | 0.00 | 88 | 1015.0 |
| 20260508013025 | 43 | 313 | 6.1 | 8.7 | 0.00 | 0.00 | 0.00 | 88 | 1014.0 |
| 20260508012709 | 43 | 304 | 5.2 | 7.8 | 0.00 | 0.00 | 0.00 | 87 | 1015.0 |
| 20260508012539 | 43 | 313 | 5.2 | 11.3 | 0.00 | 0.00 | 0.00 | 87 | 1015.0 |
| 20260508012021 | 43 | 318 | 5.2 | 7.8 | 0.00 | 0.00 | 0.00 | 87 | 1014.0 |
| 20260508011642 | 43 | 283 | 3.5 | 4.3 | 0.00 | 0.00 | 0.00 | 87 | 1015.0 |
| 20260508011533 | 43 | 289 | 4.3 | 8.7 | 0.00 | 0.00 | 0.00 | 87 | 1015.0 |
| 20260508011040 | 43 | 309 | 4.3 | 7.0 | 0.00 | 0.00 | 0.00 | 88 | 1014.0 |
| 20260508010615 | 43 | 301 | 6.1 | 8.7 | 0.00 | 0.00 | 0.00 | 88 | 1014.7 |
| 20260508010540 | 43 | 307 | 6.1 | 9.6 | 0.00 | 0.00 | 0.00 | 88 | 1015.0 |
| 20260508010022 | 43 | 310 | 5.2 | 8.7 | 0.00 | 0.00 | 0.00 | 88 | 1014.0 |
| 20260508005600 | 43 | 313 | 5.2 | 9.6 | 0.00 | 0.00 | 0.00 | 88 | 1014.7 |
| 20260508005545 | 43 | 316 | 7.8 | 9.6 | 0.00 | 0.00 | 0.00 | 88 | 1014.7 |
| 20260508005022 | 43 | 298 | 4.3 | 8.7 | 0.00 | 0.00 | 0.00 | 88 | 1014.0 |
| 20260508004539 | 43 | 316 | 5.2 | 7.0 | 0.00 | 0.00 | 0.00 | 88 | 1014.7 |
| 20260508004521 | 43 | 307 | 5.2 | 7.8 | 0.00 | 0.00 | 0.00 | 87 | 1015.0 |
| 20260508004033 | 43 | 314 | 5.2 | 10.4 | 0.00 | 0.00 | 0.00 | 86 | 1013.7 |
| 20260508003628 | 43 | 314 | 8.7 | 9.6 | 0.00 | 0.00 | 0.00 | 86 | 1014.7 |
| 20260508003526 | 43 | 309 | 7.8 | 14.8 | 0.00 | 0.00 | 0.00 | 86 | 1014.7 |
| 20260508003020 | 44 | 308 | 7.8 | 11.3 | 0.00 | 0.00 | 0.00 | 85 | 1013.7 |
| 20260508002650 | 44 | 286 | 6.1 | 6.1 | 0.00 | 0.00 | 0.00 | 85 | 1014.3 |
| 20260508002540 | 44 | 284 | 7.0 | 13.9 | 0.00 | 0.00 | 0.00 | 85 | 1014.7 |
| 20260508002101 | 44 | 290 | 7.0 | 12.2 | 0.00 | 0.00 | 0.00 | 85 | 1013.7 |
| 20260508001554 | 44 | 293 | 7.8 | 10.4 | 0.00 | 0.00 | 0.00 | 85 | 1014.3 |
| 20260508001545 | 44 | 301 | 7.0 | 10.4 | 0.00 | 0.00 | 0.00 | 85 | 1014.3 |
| 20260508001030 | 44 | 289 | 6.1 | 11.3 | 0.00 | 0.00 | 0.00 | 85 | 1013.3 |
| 20260508000801 | 44 | 279 | 6.1 | 8.7 | 0.00 | 0.00 | 0.00 | 84 | 1014.0 |
| 20260508000532 | 44 | 269 | 6.1 | 8.7 | 0.00 | 0.00 | 0.00 | 84 | 1014.3 |
| 20260508000035 | 44 | 256 | 7.8 | 13.9 | 0.00 | 0.00 | 0.00 | 84 | 1013.3 |
| 20260507235529 | 44 | 257 | 9.6 | 11.3 | 0.00 | 0.00 | 0.00 | 84 | 1014.0 |
| 20260507235520 | 44 | 256 | 9.6 | 15.6 | 0.00 | 0.00 | 0.00 | 84 | 1014.0 |
| 20260507235031 | 45 | 267 | 8.7 | 14.8 | 0.00 | 0.00 | 0.00 | 82 | 1013.3 |
| 20260507234600 | 46 | 299 | 7.8 | 11.3 | 0.00 | 0.00 | 0.00 | 77 | 1014.0 |
| 20260507234545 | 46 | 295 | 7.8 | 13.0 | 0.00 | 0.00 | 0.00 | 77 | 1014.0 |
| 20260507234059 | 46 | 293 | 10.4 | 14.8 | 0.00 | 0.00 | 0.00 | 76 | 1013.0 |
| 20260507233547 | 46 | 304 | 7.0 | 7.0 | 0.00 | 0.00 | 0.00 | 77 | 1013.7 |
| 20260507233530 | 46 | 314 | 11.3 | 20.9 | 0.00 | 0.00 | 0.00 | 76 | 1014.0 |
| 20260507233104 | 47 | 313 | 8.7 | 11.3 | 0.00 | 0.00 | 0.00 | 78 | 1013.0 |
| 20260507232544 | 46 | 293 | 7.0 | 10.4 | 0.00 | 0.00 | 0.00 | 77 | 1013.7 |
| 20260507232535 | 46 | 306 | 6.1 | 10.4 | 0.00 | 0.00 | 0.00 | 77 | 1014.0 |
| 20260507232040 | 46 | 308 | 8.7 | 11.3 | 0.00 | 0.00 | 0.00 | 77 | 1013.0 |
| 20260507231549 | 46 | 321 | 8.7 | 11.3 | 0.00 | 0.00 | 0.00 | 78 | 1013.7 |
| 20260507231531 | 46 | 310 | 7.8 | 11.3 | 0.00 | 0.00 | 0.00 | 78 | 1013.7 |
| 20260507231025 | 46 | 291 | 8.7 | 13.0 | 0.00 | 0.00 | 0.00 | 79 | 1012.6 |
| 20260507230637 | 46 | 303 | 8.7 | 13.9 | 0.00 | 0.00 | 0.00 | 80 | 1013.7 |
| 20260507230519 | 46 | 306 | 7.8 | 13.9 | 0.00 | 0.00 | 0.00 | 79 | 1013.7 |
| 20260507230030 | 46 | 295 | 7.8 | 12.2 | 0.00 | 0.00 | 0.00 | 79 | 1012.6 |
| 20260507225726 | 46 | 295 | 8.7 | 13.9 | 0.00 | 0.00 | 0.00 | 79 | 1013.7 |
| 20260507225524 | 46 | 312 | 8.7 | 13.9 | 0.00 | 0.00 | 0.00 | 80 | 1013.7 |
| 20260507225052 | 46 | 306 | 8.7 | 14.8 | 0.00 | 0.00 | 0.00 | 80 | 1012.6 |
| 20260507224528 | 46 | 311 | 9.6 | 11.3 | 0.00 | 0.00 | 0.00 | 80 | 1013.7 |
| 20260507224520 | 46 | 310 | 7.8 | 12.2 | 0.00 | 0.00 | 0.00 | 80 | 1013.7 |
| 20260507224022 | 46 | 303 | 7.0 | 9.6 | 0.00 | 0.00 | 0.00 | 80 | 1012.6 |
| 20260507223542 | 46 | 290 | 8.7 | 11.3 | 0.00 | 0.00 | 0.00 | 80 | 1013.7 |
| 20260507223525 | 46 | 285 | 6.1 | 7.0 | 0.00 | 0.00 | 0.00 | 81 | 1013.3 |
| 20260507223106 | 46 | 265 | 8.7 | 14.8 | 0.00 | 0.00 | 0.00 | 80 | 1012.6 |
| 20260507222530 | 46 | 250 | 9.6 | 17.4 | 0.00 | 0.00 | 0.00 | 79 | 1013.3 |
| 20260507222521 | 46 | 262 | 13.0 | 17.4 | 0.00 | 0.00 | 0.00 | 79 | 1013.3 |
| 20260507222023 | 46 | 249 | 10.4 | 15.6 | 0.00 | 0.00 | 0.00 | 79 | 1012.3 |
| 20260507221602 | 46 | 234 | 13.0 | 16.5 | 0.00 | 0.00 | 0.00 | 79 | 1013.3 |
| 20260507221526 | 46 | 250 | 8.7 | 15.6 | 0.00 | 0.00 | 0.00 | 79 | 1013.3 |
| 20260507221049 | 46 | 264 | 7.8 | 16.5 | 0.00 | 0.00 | 0.00 | 79 | 1012.6 |
| 20260507220522 | 46 | 244 | 10.4 | 16.5 | 0.00 | 0.00 | 0.00 | 78 | 1013.3 |
| 20260507220025 | 46 | 253 | 9.6 | 17.4 | 0.00 | 0.00 | 0.00 | 78 | 1012.6 |
| 20260507215611 | 47 | 249 | 10.4 | 23.5 | 0.00 | 0.00 | 0.00 | 78 | 1013.3 |
| 20260507215519 | 47 | 246 | 8.7 | 13.0 | 0.00 | 0.00 | 0.00 | 78 | 1013.3 |
| 20260507215021 | 47 | 282 | 8.7 | 12.2 | 0.00 | 0.00 | 0.00 | 75 | 1012.3 |
| 20260507214524 | 47 | 295 | 9.6 | 13.9 | 0.00 | 0.00 | 0.00 | 74 | 1013.3 |
| 20260507214035 | 48 | 292 | 10.4 | 14.8 | 0.00 | 0.00 | 0.00 | 73 | 1012.3 |
| 20260507213529 | 48 | 285 | 7.8 | 10.4 | 0.00 | 0.00 | 0.00 | 74 | 1013.3 |
| 20260507213521 | 48 | 300 | 7.8 | 11.3 | 0.00 | 0.00 | 0.00 | 74 | 1013.3 |
| 20260507213023 | 47 | 296 | 9.6 | 14.8 | 0.00 | 0.00 | 0.00 | 75 | 1012.3 |
| 20260507212542 | 48 | 305 | 11.3 | 17.4 | 0.00 | 0.00 | 0.00 | 73 | 1013.0 |
| 20260507212525 | 48 | 297 | 12.2 | 17.4 | 0.00 | 0.00 | 0.00 | 73 | 1013.0 |
| 20260507212018 | 49 | 297 | 9.6 | 17.4 | 0.00 | 0.00 | 0.00 | 72 | 1011.9 |
| 20260507211521 | 49 | 296 | 10.4 | 15.6 | 0.00 | 0.00 | 0.00 | 74 | 1013.0 |
| 20260507211024 | 49 | 265 | 9.6 | 15.6 | 0.00 | 0.00 | 0.00 | 77 | 1011.9 |
| 20260507210552 | 47 | 271 | 7.8 | 12.2 | 0.00 | 0.00 | 0.00 | 78 | 1012.6 |
| 20260507210535 | 47 | 260 | 9.6 | 13.0 | 0.00 | 0.00 | 0.00 | 78 | 1013.0 |
| 20260507210020 | 47 | 259 | 10.4 | 14.8 | 0.00 | 0.00 | 0.00 | 78 | 1011.9 |
| 20260507205522 | 47 | 279 | 9.6 | 13.0 | 0.00 | 0.00 | 0.00 | 78 | 1013.0 |
| 20260507205103 | 47 | 253 | 8.7 | 11.3 | 0.00 | 0.00 | 0.00 | 78 | 1011.9 |
| 20260507204602 | 47 | 271 | 8.7 | 13.0 | 0.00 | 0.00 | 0.00 | 79 | 1012.6 |
| 20260507204518 | 47 | 270 | 8.7 | 13.9 | 0.00 | 0.00 | 0.00 | 79 | 1012.6 |
| 20260507204050 | 48 | 263 | 11.3 | 15.6 | 0.00 | 0.00 | 0.00 | 78 | 1011.9 |
| 20260507203532 | 48 | 267 | 7.8 | 11.3 | 0.00 | 0.00 | 0.00 | 78 | 1013.0 |
| 20260507203524 | 48 | 269 | 9.6 | 13.0 | 0.00 | 0.00 | 0.00 | 78 | 1012.6 |
| 20260507203052 | 47 | 279 | 8.7 | 11.3 | 0.00 | 0.00 | 0.00 | 76 | 1011.9 |
| 20260507202546 | 46 | 279 | 7.8 | 11.3 | 0.00 | 0.00 | 0.00 | 78 | 1012.6 |
| 20260507202528 | 46 | 280 | 7.0 | 11.3 | 0.00 | 0.00 | 0.00 | 78 | 1012.6 |
| 20260507202049 | 46 | 294 | 8.7 | 12.2 | 0.00 | 0.00 | 0.00 | 77 | 1011.9 |
| 20260507201534 | 46 | 315 | 7.0 | 11.3 | 0.00 | 0.00 | 0.00 | 77 | 1013.0 |
| 20260507201019 | 46 | 308 | 7.0 | 11.3 | 0.00 | 0.00 | 0.00 | 78 | 1011.9 |
| 20260507200608 | 46 | 303 | 5.2 | 9.6 | 0.00 | 0.00 | 0.00 | 78 | 1012.6 |
| 20260507200538 | 46 | 310 | 6.1 | 9.6 | 0.00 | 0.00 | 0.00 | 78 | 1013.0 |
| 20260507200024 | 46 | 303 | 8.7 | 13.0 | 0.00 | 0.00 | 0.00 | 77 | 1011.9 |
| 20260507195630 | 46 | 302 | 10.4 | 14.8 | 0.00 | 0.00 | 0.00 | 77 | 1012.6 |
| 20260507195535 | 47 | 303 | 10.4 | 13.9 | 0.00 | 0.00 | 0.00 | 77 | 1013.0 |
| 20260507195037 | 47 | 302 | 10.4 | 15.6 | 0.00 | 0.00 | 0.00 | 76 | 1011.9 |
| 20260507194548 | 47 | 297 | 10.4 | 15.6 | 0.00 | 0.00 | 0.00 | 75 | 1012.6 |
| 20260507194544 | 47 | 302 | 10.4 | 15.6 | 0.00 | 0.00 | 0.00 | 75 | 1013.0 |
| 20260507194111 | 48 | 304 | 12.2 | 16.5 | 0.00 | 0.00 | 0.00 | 74 | 1011.9 |
| 20260507193634 | 48 | 304 | 13.9 | 17.4 | 0.00 | 0.00 | 0.00 | 73 | 1012.6 |
| 20260507193559 | 48 | 306 | 13.9 | 17.4 | 0.00 | 0.00 | 0.00 | 73 | 1013.0 |
| 20260507193035 | 48 | 308 | 12.2 | 19.1 | 0.00 | 0.00 | 0.00 | 74 | 1011.6 |
| 20260507192729 | 48 | 309 | 10.4 | 14.8 | 0.00 | 0.00 | 0.00 | 76 | 1012.6 |
| 20260507192523 | 49 | 306 | 9.6 | 14.8 | 0.00 | 0.00 | 0.00 | 76 | 1012.6 |
| 20260507192027 | 48 | 309 | 11.3 | 15.6 | 0.00 | 0.00 | 0.00 | 76 | 1011.6 |
| 20260507191537 | 49 | 299 | 9.6 | 15.6 | 0.00 | 0.00 | 0.00 | 74 | 1012.6 |
| 20260507191528 | 49 | 296 | 8.7 | 11.3 | 0.00 | 0.00 | 0.00 | 74 | 1012.6 |
| 20260507191029 | 50 | 286 | 5.2 | 7.8 | 0.00 | 0.00 | 0.00 | 75 | 1011.6 |
| 20260507190542 | 49 | 280 | 3.5 | 5.2 | 0.00 | 0.00 | 0.00 | 75 | 1012.3 |
| 20260507190525 | 50 | 287 | 3.5 | 6.1 | 0.00 | 0.00 | 0.00 | 76 | 1012.3 |
| 20260507190018 | 49 | 319 | 1.7 | 5.2 | 0.00 | 0.00 | 0.00 | 78 | 1011.6 |
| 20260507185538 | 49 | 327 | 2.6 | 5.2 | 0.00 | 0.00 | 0.00 | 78 | 1012.6 |
| 20260507185521 | 49 | 317 | 3.5 | 5.2 | 0.00 | 0.00 | 0.00 | 78 | 1012.6 |
| 20260507185045 | 49 | 317 | 3.5 | 7.0 | 0.00 | 0.00 | 0.00 | 78 | 1011.6 |
| 20260507184654 | 49 | 312 | 2.6 | 6.1 | 0.00 | 0.00 | 0.00 | 80 | 1012.6 |
| 20260507184526 | 49 | 312 | 3.5 | 6.1 | 0.00 | 0.00 | 0.00 | 80 | 1012.6 |
| 20260507184022 | 49 | 306 | 3.5 | 6.1 | 0.00 | 0.00 | 0.00 | 80 | 1011.9 |
| 20260507183606 | 48 | 305 | 3.5 | 4.3 | 0.00 | 0.00 | 0.00 | 81 | 1012.6 |
| 20260507183532 | 48 | 297 | 2.6 | 4.3 | 0.00 | 0.00 | 0.00 | 81 | 1013.0 |
| 20260507183036 | 48 | 266 | 2.6 | 5.2 | 0.00 | 0.00 | 0.00 | 81 | 1011.9 |
| 20260507182536 | 48 | 294 | 2.6 | 3.5 | 0.00 | 0.00 | 0.00 | 80 | 1012.6 |
| 20260507182527 | 48 | 283 | 2.6 | 4.3 | 0.00 | 0.00 | 0.00 | 80 | 1013.0 |
| 20260507182030 | 48 | 262 | 4.3 | 7.0 | 0.00 | 0.00 | 0.00 | 81 | 1011.9 |
| 20260507181532 | 48 | 234 | 4.3 | 5.2 | 0.00 | 0.00 | 0.00 | 81 | 1013.0 |
| 20260507181523 | 48 | 250 | 3.5 | 5.2 | 0.00 | 0.00 | 0.00 | 81 | 1013.0 |
| 20260507181052 | 47 | 283 | 4.3 | 6.1 | 0.00 | 0.00 | 0.00 | 82 | 1011.9 |
| 20260507180709 | 47 | 311 | 4.3 | 5.2 | 0.00 | 0.00 | 0.00 | 83 | 1013.0 |
| 20260507180546 | 47 | 300 | 5.2 | 7.8 | 0.00 | 0.00 | 0.00 | 83 | 1013.0 |
| 20260507180135 | 47 | 269 | 5.2 | 8.7 | 0.00 | 0.00 | 0.00 | 84 | 1012.3 |
| 20260507175551 | 47 | 269 | 4.3 | 8.7 | 0.00 | 0.00 | 0.00 | 87 | 1013.3 |
| 20260507175542 | 47 | 254 | 5.2 | 7.8 | 0.00 | 0.00 | 0.00 | 87 | 1013.0 |
| 20260507175018 | 46 | 263 | 4.3 | 7.8 | 0.00 | 0.00 | 0.00 | 88 | 1012.3 |
| 20260507174539 | 46 | 276 | 6.1 | 10.4 | 0.00 | 0.00 | 0.00 | 89 | 1013.3 |
| 20260507174521 | 46 | 272 | 6.1 | 10.4 | 0.00 | 0.00 | 0.00 | 89 | 1013.3 |
| 20260507174032 | 46 | 256 | 6.1 | 9.6 | 0.00 | 0.00 | 0.00 | 90 | 1012.3 |
| 20260507173526 | 45 | 271 | 6.1 | 10.4 | 0.00 | 0.00 | 0.00 | 90 | 1013.3 |
| 20260507173020 | 45 | 262 | 7.0 | 11.3 | 0.00 | 0.00 | 0.00 | 90 | 1012.3 |
| 20260507172522 | 46 | 269 | 5.2 | 9.6 | 0.00 | 0.00 | 0.00 | 90 | 1013.3 |
| 20260507172105 | 46 | 249 | 3.5 | 7.0 | 0.00 | 0.00 | 0.00 | 90 | 1012.3 |
| 20260507171527 | 46 | 267 | 4.3 | 7.0 | 0.00 | 0.00 | 0.00 | 91 | 1013.3 |
| 20260507171518 | 46 | 270 | 4.3 | 7.0 | 0.00 | 0.00 | 0.00 | 91 | 1013.3 |
| 20260507171021 | 46 | 288 | 6.1 | 12.2 | 0.00 | 0.00 | 0.00 | 91 | 1012.6 |
| 20260507170558 | 45 | 270 | 6.1 | 11.3 | 0.00 | 0.00 | 0.00 | 92 | 1013.3 |
| 20260507170523 | 45 | 257 | 7.0 | 11.3 | 0.00 | 0.00 | 0.00 | 91 | 1013.3 |
| 20260507170044 | 45 | 281 | 7.0 | 11.3 | 0.00 | 0.00 | 0.00 | 94 | 1012.6 |
| 20260507165520 | 45 | 297 | 5.2 | 10.4 | 0.00 | 0.00 | 0.00 | 96 | 1013.3 |
| 20260507165036 | 45 | 286 | 4.3 | 11.3 | 0.00 | 0.00 | 0.00 | 96 | 1012.6 |
| 20260507164634 | 45 | 264 | 2.6 | 4.3 | 0.00 | 0.00 | 0.00 | 96 | 1013.3 |
| 20260507164525 | 45 | 263 | 3.5 | 6.1 | 0.00 | 0.00 | 0.00 | 96 | 1013.7 |
| 20260507164027 | 44 | 250 | 2.6 | 7.0 | 0.00 | 0.00 | 0.00 | 96 | 1012.6 |
| 20260507163631 | 44 | 268 | 2.6 | 6.1 | 0.00 | 0.00 | 0.00 | 96 | 1013.7 |
| 20260507163521 | 44 | 271 | 3.5 | 6.1 | 0.00 | 0.00 | 0.00 | 96 | 1013.7 |
| 20260507163028 | 44 | 275 | 4.3 | 7.8 | 0.00 | 0.00 | 0.00 | 96 | 1012.6 |
| 20260507162535 | 44 | 242 | 2.6 | 4.3 | 0.00 | 0.00 | 0.00 | 95 | 1013.7 |
| 20260507162042 | 44 | 235 | 2.6 | 5.2 | 0.00 | 0.00 | 0.00 | 95 | 1012.6 |
| 20260507161522 | 44 | 277 | 3.5 | 4.3 | 0.00 | 0.00 | 0.00 | 95 | 1013.7 |
| 20260507161039 | 45 | 266 | 2.6 | 7.0 | 0.00 | 0.00 | 0.00 | 95 | 1012.6 |
| 20260507160536 | 45 | 282 | 2.6 | 3.5 | 0.00 | 0.00 | 0.00 | 95 | 1013.7 |
| 20260507160030 | 45 | 320 | 2.6 | 6.1 | 0.00 | 0.00 | 0.00 | 94 | 1013.0 |
| 20260507155544 | 44 | 298 | 2.6 | 5.2 | 0.00 | 0.00 | 0.00 | 94 | 1013.7 |
| 20260507155027 | 45 | 295 | 1.7 | 4.3 | 0.00 | 0.00 | 0.00 | 94 | 1013.0 |
| 20260507154519 | 45 | 334 | 2.6 | 4.3 | 0.00 | 0.00 | 0.00 | 94 | 1013.7 |
| 20260507154100 | 45 | 259 | 2.6 | 5.2 | 0.00 | 0.00 | 0.00 | 93 | 1013.0 |
| 20260507153634 | 45 | 261 | 1.7 | 3.5 | 0.00 | 0.00 | 0.00 | 93 | 1013.7 |
| 20260507153626 | 45 | 261 | 2.6 | 5.2 | 0.00 | 0.00 | 0.00 | 93 | 1014.0 |
| 20260507153042 | 45 | 330 | 3.5 | 6.1 | 0.00 | 0.00 | 0.00 | 93 | 1013.0 |
| 20260507152616 | 45 | 314 | 5.2 | 7.0 | 0.00 | 0.00 | 0.00 | 92 | 1014.0 |
| 20260507152521 | 45 | 321 | 4.3 | 7.0 | 0.00 | 0.00 | 0.00 | 92 | 1014.0 |
| 20260507152121 | 45 | 324 | 3.5 | 7.0 | 0.00 | 0.00 | 0.00 | 91 | 1013.0 |
| 20260507151526 | 45 | 326 | 4.3 | 7.0 | 0.00 | 0.00 | 0.00 | 91 | 1014.0 |
| 20260507151100 | 45 | 317 | 4.3 | 7.0 | 0.00 | 0.00 | 0.00 | 91 | 1013.3 |
| 20260507150540 | 45 | 315 | 5.2 | 7.0 | 0.00 | 0.00 | 0.00 | 90 | 1014.3 |
| 20260507150522 | 45 | 318 | 5.2 | 7.0 | 0.00 | 0.00 | 0.00 | 90 | 1014.0 |
| 20260507150025 | 45 | 297 | 4.3 | 8.7 | 0.00 | 0.00 | 0.00 | 91 | 1013.3 |
| 20260507145553 | 45 | 313 | 4.3 | 7.0 | 0.00 | 0.00 | 0.00 | 91 | 1014.3 |
| 20260507145538 | 45 | 316 | 4.3 | 6.1 | 0.00 | 0.00 | 0.00 | 91 | 1014.0 |
| 20260507145021 | 44 | 301 | 6.1 | 10.4 | 0.00 | 0.00 | 0.00 | 92 | 1013.3 |
| 20260507144532 | 44 | 312 | 6.1 | 8.7 | 0.00 | 0.00 | 0.00 | 92 | 1014.3 |
| 20260507144523 | 44 | 310 | 6.1 | 8.7 | 0.00 | 0.00 | 0.00 | 92 | 1014.3 |
| 20260507144054 | 44 | 314 | 4.3 | 10.4 | 0.00 | 0.00 | 0.00 | 92 | 1013.3 |
| 20260507143554 | 44 | 303 | 5.2 | 7.8 | 0.00 | 0.00 | 0.00 | 92 | 1014.3 |
| 20260507143520 | 44 | 309 | 6.1 | 11.3 | 0.00 | 0.00 | 0.00 | 92 | 1014.3 |
| 20260507143049 | 44 | 323 | 5.2 | 8.7 | 0.00 | 0.00 | 0.00 | 92 | 1013.3 |
| 20260507142525 | 44 | 315 | 7.0 | 9.6 | 0.00 | 0.00 | 0.00 | 91 | 1014.3 |
| 20260507142018 | 44 | 318 | 6.1 | 9.6 | 0.00 | 0.00 | 0.00 | 91 | 1013.7 |
| 20260507141558 | 45 | 288 | 6.1 | 10.4 | 0.00 | 0.00 | 0.00 | 90 | 1014.3 |
| 20260507141530 | 45 | 290 | 6.1 | 13.0 | 0.00 | 0.00 | 0.00 | 90 | 1014.3 |
| 20260507141032 | 45 | 290 | 7.0 | 12.2 | 0.00 | 0.00 | 0.00 | 90 | 1013.7 |
| 20260507140552 | 45 | 298 | 7.0 | 11.3 | 0.00 | 0.00 | 0.00 | 91 | 1014.3 |
| 20260507140534 | 45 | 294 | 7.0 | 13.0 | 0.00 | 0.00 | 0.00 | 91 | 1014.3 |
| 20260507140025 | 44 | 315 | 6.1 | 8.7 | 0.00 | 0.00 | 0.00 | 91 | 1013.3 |
| 20260507135611 | 45 | 294 | 4.3 | 6.1 | 0.00 | 0.00 | 0.00 | 92 | 1014.3 |
| 20260507135527 | 45 | 286 | 5.2 | 10.4 | 0.00 | 0.00 | 0.00 | 92 | 1014.3 |
| 20260507135033 | 45 | 295 | 5.2 | 7.8 | 0.00 | 0.00 | 0.00 | 91 | 1013.3 |
| 20260507134545 | 45 | 267 | 5.2 | 7.0 | 0.00 | 0.00 | 0.00 | 91 | 1014.3 |
| 20260507134518 | 45 | 282 | 5.2 | 7.8 | 0.00 | 0.00 | 0.00 | 91 | 1014.3 |
| 20260507134025 | 44 | 274 | 7.0 | 10.4 | 0.00 | 0.00 | 0.00 | 92 | 1013.3 |
| 20260507133558 | 44 | 272 | 7.0 | 10.4 | 0.00 | 0.00 | 0.00 | 92 | 1014.3 |
| 20260507133532 | 44 | 275 | 7.0 | 9.6 | 0.00 | 0.00 | 0.00 | 92 | 1014.3 |
| 20260507133035 | 44 | 277 | 5.2 | 8.7 | 0.00 | 0.00 | 0.00 | 92 | 1013.3 |
| 20260507132537 | 44 | 292 | 6.1 | 8.7 | 0.00 | 0.00 | 0.00 | 92 | 1014.3 |
| 20260507132528 | 44 | 289 | 6.1 | 8.7 | 0.00 | 0.00 | 0.00 | 92 | 1014.3 |
| 20260507132022 | 44 | 310 | 4.3 | 8.7 | 0.00 | 0.00 | 0.00 | 93 | 1013.3 |
| 20260507131533 | 44 | 275 | 5.2 | 9.6 | 0.00 | 0.00 | 0.00 | 92 | 1014.0 |
| 20260507131524 | 44 | 276 | 4.3 | 7.8 | 0.00 | 0.00 | 0.00 | 92 | 1014.3 |
| 20260507131018 | 44 | 293 | 5.2 | 8.7 | 0.00 | 0.00 | 0.00 | 93 | 1013.3 |
| 20260507130613 | 44 | 311 | 4.3 | 7.0 | 0.00 | 0.00 | 0.00 | 93 | 1014.3 |
| 20260507130521 | 44 | 310 | 4.3 | 7.0 | 0.00 | 0.00 | 0.00 | 93 | 1014.3 |
| 20260507130029 | 44 | 300 | 5.2 | 7.0 | 0.00 | 0.00 | 0.00 | 93 | 1013.7 |
| 20260507125534 | 44 | 293 | 5.2 | 7.8 | 0.00 | 0.00 | 0.00 | 93 | 1014.3 |
| 20260507125526 | 44 | 288 | 5.2 | 7.8 | 0.00 | 0.00 | 0.00 | 93 | 1014.7 |
| 20260507125020 | 44 | 295 | 6.1 | 9.6 | 0.00 | 0.00 | 0.00 | 93 | 1013.7 |
| 20260507124522 | 44 | 300 | 6.1 | 8.7 | 0.00 | 0.00 | 0.00 | 93 | 1014.7 |
| 20260507124200 | 44 | 279 | 5.2 | 7.8 | 0.00 | 0.00 | 0.00 | 94 | 1013.7 |
| 20260507123544 | 44 | 277 | 5.2 | 8.7 | 0.00 | 0.00 | 0.00 | 94 | 1014.3 |
| 20260507123518 | 44 | 277 | 5.2 | 7.8 | 0.00 | 0.00 | 0.00 | 94 | 1014.3 |
| 20260507123041 | 43 | 276 | 4.3 | 7.8 | 0.00 | 0.00 | 0.00 | 94 | 1013.7 |
| 20260507122523 | 43 | 279 | 5.2 | 9.6 | 0.00 | 0.00 | 0.00 | 94 | 1014.7 |
| 20260507122026 | 43 | 270 | 7.0 | 10.4 | 0.00 | 0.00 | 0.00 | 94 | 1013.7 |
| 20260507121545 | 43 | 280 | 6.1 | 8.7 | 0.00 | 0.00 | 0.00 | 94 | 1014.3 |
| 20260507121519 | 43 | 285 | 6.1 | 9.6 | 0.00 | 0.00 | 0.00 | 94 | 1014.3 |
| 20260507121043 | 43 | 260 | 5.2 | 7.8 | 0.00 | 0.00 | 0.00 | 94 | 1013.3 |
| 20260507120542 | 43 | 281 | 6.1 | 7.8 | 0.00 | 0.00 | 0.00 | 94 | 1014.3 |
| 20260507120533 | 43 | 287 | 5.2 | 7.0 | 0.00 | 0.00 | 0.00 | 94 | 1014.7 |
| 20260507120018 | 43 | 279 | 5.2 | 8.7 | 0.00 | 0.00 | 0.00 | 95 | 1013.7 |
| 20260507115529 | 43 | 260 | 6.1 | 8.7 | 0.00 | 0.00 | 0.00 | 95 | 1014.3 |
| 20260507115521 | 43 | 261 | 5.2 | 7.0 | 0.00 | 0.00 | 0.00 | 95 | 1014.7 |
| 20260507115034 | 43 | 283 | 5.2 | 6.1 | 0.00 | 0.00 | 0.00 | 95 | 1013.7 |
| 20260507114603 | 43 | 254 | 3.5 | 5.2 | 0.00 | 0.00 | 0.00 | 95 | 1014.7 |
| 20260507114555 | 43 | 253 | 3.5 | 6.1 | 0.00 | 0.00 | 0.00 | 95 | 1014.3 |
| 20260507114021 | 43 | 292 | 4.3 | 6.1 | 0.00 | 0.00 | 0.00 | 95 | 1013.7 |
| 20260507113522 | 43 | 244 | 4.3 | 6.1 | 0.00 | 0.00 | 0.00 | 95 | 1014.3 |
| 20260507113024 | 43 | 266 | 4.3 | 8.7 | 0.00 | 0.00 | 0.00 | 95 | 1013.7 |
| 20260507112556 | 43 | 264 | 5.2 | 7.0 | 0.00 | 0.00 | 0.00 | 95 | 1014.3 |
| 20260507112035 | 43 | 265 | 3.5 | 5.2 | 0.00 | 0.00 | 0.00 | 95 | 1013.7 |
| 20260507111553 | 43 | 274 | 5.2 | 9.6 | 0.00 | 0.00 | 0.00 | 95 | 1014.7 |
| 20260507111523 | 43 | 268 | 5.2 | 8.7 | 0.00 | 0.00 | 0.00 | 95 | 1014.3 |
| 20260507111034 | 42 | 272 | 5.2 | 7.8 | 0.00 | 0.00 | 0.00 | 95 | 1013.7 |
| 20260507110528 | 42 | 279 | 6.1 | 8.7 | 0.00 | 0.00 | 0.00 | 95 | 1014.3 |
| 20260507110519 | 42 | 281 | 5.2 | 7.8 | 0.00 | 0.00 | 0.00 | 95 | 1014.7 |
| 20260507110022 | 42 | 284 | 5.2 | 8.7 | 0.00 | 0.00 | 0.00 | 95 | 1013.7 |
| 20260507105524 | 42 | 245 | 7.8 | 11.3 | 0.00 | 0.00 | 0.00 | 95 | 1014.7 |
| 20260507105028 | 42 | 279 | 6.1 | 11.3 | 0.00 | 0.00 | 0.00 | 95 | 1013.7 |
| 20260507104541 | 42 | 281 | 5.2 | 9.6 | 0.00 | 0.00 | 0.00 | 95 | 1014.7 |
| 20260507104520 | 42 | 276 | 5.2 | 8.7 | 0.00 | 0.00 | 0.00 | 95 | 1014.3 |
| 20260507104050 | 42 | 247 | 5.2 | 8.7 | 0.00 | 0.00 | 0.00 | 95 | 1013.3 |
| 20260507103655 | 42 | 265 | 4.3 | 7.8 | 0.00 | 0.00 | 0.00 | 95 | 1014.7 |
| 20260507103525 | 42 | 267 | 4.3 | 7.8 | 0.00 | 0.00 | 0.00 | 95 | 1014.3 |
| 20260507103029 | 42 | 265 | 2.6 | 5.2 | 0.00 | 0.00 | 0.00 | 95 | 1013.3 |
| 20260507102539 | 42 | 246 | 5.2 | 7.0 | 0.00 | 0.00 | 0.00 | 95 | 1014.3 |
| 20260507102522 | 42 | 246 | 4.3 | 7.0 | 0.00 | 0.00 | 0.00 | 95 | 1014.3 |
| 20260507102033 | 42 | 218 | 3.5 | 5.2 | 0.00 | 0.00 | 0.00 | 95 | 1013.3 |
| 20260507101619 | 42 | 197 | 1.7 | 4.3 | 0.00 | 0.00 | 0.00 | 95 | 1014.0 |
| 20260507101518 | 42 | 216 | 2.6 | 5.2 | 0.00 | 0.00 | 0.00 | 95 | 1014.0 |
| 20260507101021 | 42 | 223 | 2.6 | 7.0 | 0.00 | 0.00 | 0.00 | 94 | 1013.3 |
| 20260507100523 | 42 | 276 | 1.7 | 4.3 | 0.00 | 0.00 | 0.00 | 94 | 1014.0 |
| 20260507100031 | 42 | 244 | 2.6 | 4.3 | 0.00 | 0.00 | 0.00 | 94 | 1013.3 |
| 20260507095519 | 42 | 237 | 2.6 | 5.2 | 0.00 | 0.00 | 0.00 | 94 | 1014.0 |
| 20260507095022 | 42 | 233 | 4.3 | 7.8 | 0.00 | 0.00 | 0.00 | 94 | 1013.3 |
| 20260507094608 | 42 | 267 | 5.2 | 8.7 | 0.00 | 0.00 | 0.00 | 94 | 1014.0 |
| 20260507094533 | 42 | 259 | 5.2 | 8.7 | 0.00 | 0.00 | 0.00 | 94 | 1014.3 |
| 20260507094036 | 42 | 277 | 4.3 | 7.8 | 0.00 | 0.00 | 0.00 | 94 | 1013.3 |
| 20260507093529 | 42 | 257 | 4.3 | 8.7 | 0.00 | 0.00 | 0.00 | 94 | 1014.0 |
| 20260507093521 | 42 | 249 | 4.3 | 8.7 | 0.00 | 0.00 | 0.00 | 94 | 1014.3 |
| 20260507093043 | 42 | 296 | 3.5 | 7.8 | 0.00 | 0.00 | 0.00 | 93 | 1013.3 |
| 20260507092607 | 42 | 277 | 3.5 | 5.2 | 0.00 | 0.00 | 0.00 | 93 | 1014.3 |
| 20260507092543 | 42 | 278 | 3.5 | 6.1 | 0.00 | 0.00 | 0.00 | 93 | 1014.3 |
| 20260507092020 | 42 | 242 | 2.6 | 5.2 | 0.00 | 0.00 | 0.00 | 93 | 1013.3 |
| 20260507091539 | 42 | 304 | 3.5 | 5.2 | 0.00 | 0.00 | 0.00 | 93 | 1014.3 |
| 20260507091531 | 42 | 286 | 2.6 | 4.3 | 0.00 | 0.00 | 0.00 | 93 | 1014.3 |
| 20260507091033 | 42 | 289 | 3.5 | 5.2 | 0.00 | 0.00 | 0.00 | 93 | 1013.7 |
| 20260507090622 | 42 | 307 | 3.5 | 5.2 | 0.00 | 0.00 | 0.00 | 93 | 1014.7 |
| 20260507090526 | 42 | 307 | 3.5 | 5.2 | 0.00 | 0.00 | 0.00 | 93 | 1014.3 |
| 20260507090021 | 42 | 318 | 3.5 | 5.2 | 0.00 | 0.00 | 0.00 | 93 | 1013.7 |
| 20260507085612 | 42 | 325 | 3.5 | 4.3 | 0.00 | 0.00 | 0.00 | 93 | 1014.3 |
| 20260507085523 | 42 | 322 | 3.5 | 5.2 | 0.00 | 0.00 | 0.00 | 93 | 1014.7 |
| 20260507085026 | 42 | 332 | 2.6 | 3.5 | 0.00 | 0.00 | 0.00 | 93 | 1013.7 |
| 20260507084620 | 42 | 317 | 3.5 | 6.1 | 0.00 | 0.00 | 0.00 | 94 | 1014.3 |
| 20260507084519 | 42 | 314 | 3.5 | 5.2 | 0.00 | 0.00 | 0.00 | 94 | 1014.7 |
| 20260507084027 | 42 | 314 | 4.3 | 7.0 | 0.00 | 0.00 | 0.00 | 95 | 1013.7 |
| 20260507083608 | 42 | 317 | 3.5 | 7.0 | 0.00 | 0.00 | 0.00 | 95 | 1014.7 |
| 20260507083600 | 42 | 325 | 3.5 | 7.0 | 0.00 | 0.00 | 0.00 | 95 | 1014.7 |
| 20260507083027 | 42 | 322 | 3.5 | 4.3 | 0.00 | 0.00 | 0.00 | 96 | 1014.0 |
| 20260507082541 | 42 | 340 | 3.5 | 5.2 | 0.00 | 0.00 | 0.00 | 97 | 1014.7 |
| 20260507082529 | 42 | 339 | 2.6 | 5.2 | 0.00 | 0.00 | 0.00 | 97 | 1014.7 |
| 20260507082037 | 42 | 324 | 2.6 | 5.2 | 0.00 | 0.00 | 0.00 | 97 | 1014.0 |
| 20260507081534 | 42 | 320 | 3.5 | 4.3 | 0.00 | 0.00 | 0.00 | 97 | 1014.7 |
| 20260507081526 | 42 | 324 | 2.6 | 3.5 | 0.00 | 0.00 | 0.00 | 97 | 1014.7 |
| 20260507081019 | 42 | 322 | 1.7 | 4.3 | 0.00 | 0.00 | 0.00 | 97 | 1013.7 |
| 20260507080626 | 42 | 319 | 2.6 | 3.5 | 0.00 | 0.00 | 0.00 | 97 | 1014.3 |
| 20260507080548 | 42 | 322 | 2.6 | 4.3 | 0.00 | 0.00 | 0.00 | 97 | 1014.7 |
| 20260507080033 | 42 | 336 | 2.6 | 6.1 | 0.00 | 0.00 | 0.00 | 97 | 1013.7 |
| 20260507075555 | 42 | 313 | 2.6 | 3.5 | 0.00 | 0.00 | 0.00 | 97 | 1014.3 |
| 20260507075527 | 42 | 325 | 2.6 | 3.5 | 0.00 | 0.00 | 0.00 | 97 | 1014.7 |
| 20260507075020 | 42 | 332 | 1.7 | 2.6 | 0.00 | 0.00 | 0.00 | 97 | 1013.7 |
| 20260507074523 | 42 | 313 | 1.7 | 3.5 | 0.00 | 0.00 | 0.00 | 97 | 1014.3 |
| 20260507074057 | 42 | 326 | 0.9 | 2.6 | 0.00 | 0.00 | 0.00 | 97 | 1013.7 |
| 20260507073548 | 42 | 328 | 1.7 | 3.5 | 0.00 | 0.00 | 0.00 | 97 | 1014.7 |
| 20260507073519 | 42 | 332 | 0.9 | 2.6 | 0.00 | 0.00 | 0.00 | 97 | 1014.7 |
| 20260507073022 | 42 | 336 | 2.6 | 3.5 | 0.00 | 0.00 | 0.00 | 97 | 1014.0 |
| 20260507072600 | 42 | 323 | 2.6 | 3.5 | 0.00 | 0.00 | 0.00 | 97 | 1014.7 |
| 20260507072028 | 42 | 321 | 2.6 | 4.3 | 0.00 | 0.00 | 0.00 | 97 | 1014.0 |
| 20260507071555 | 42 | 328 | 1.7 | 3.5 | 0.00 | 0.00 | 0.00 | 97 | 1014.7 |
| 20260507071521 | 42 | 331 | 1.7 | 2.6 | 0.00 | 0.00 | 0.00 | 97 | 1014.7 |
| 20260507071023 | 42 | 310 | 1.7 | 3.5 | 0.00 | 0.00 | 0.00 | 97 | 1014.0 |
| 20260507070534 | 42 | 296 | 3.5 | 5.2 | 0.00 | 0.00 | 0.00 | 97 | 1014.7 |
| 20260507070525 | 42 | 305 | 3.5 | 5.2 | 0.00 | 0.00 | 0.00 | 97 | 1015.0 |
| 20260507070033 | 42 | 325 | 2.6 | 3.5 | 0.00 | 0.00 | 0.00 | 96 | 1014.0 |
| 20260507065559 | 42 | 308 | 2.6 | 5.2 | 0.00 | 0.00 | 0.00 | 96 | 1015.0 |
| 20260507065548 | 42 | 299 | 2.6 | 5.2 | 0.00 | 0.00 | 0.00 | 96 | 1014.7 |
| 20260507065024 | 42 | 315 | 2.6 | 4.3 | 0.00 | 0.00 | 0.00 | 96 | 1014.0 |
| 20260507064535 | 42 | 300 | 2.6 | 4.3 | 0.00 | 0.00 | 0.00 | 96 | 1015.0 |
| 20260507064527 | 42 | 285 | 2.6 | 4.3 | 0.00 | 0.00 | 0.00 | 96 | 1015.0 |
| 20260507064030 | 42 | 324 | 2.6 | 5.2 | 0.00 | 0.00 | 0.00 | 96 | 1014.0 |
| 20260507063540 | 42 | 302 | 2.6 | 4.3 | 0.00 | 0.00 | 0.00 | 96 | 1015.0 |
| 20260507063031 | 42 | 297 | 3.5 | 5.2 | 0.00 | 0.00 | 0.00 | 96 | 1014.0 |
| 20260507062609 | 42 | 307 | 2.6 | 5.2 | 0.00 | 0.00 | 0.00 | 96 | 1015.0 |
| 20260507062519 | 42 | 310 | 3.5 | 5.2 | 0.00 | 0.00 | 0.00 | 96 | 1015.0 |
| 20260507062042 | 42 | 275 | 2.6 | 5.2 | 0.00 | 0.00 | 0.00 | 96 | 1014.3 |
| 20260507061542 | 42 | 290 | 2.6 | 5.2 | 0.00 | 0.00 | 0.00 | 95 | 1015.0 |
| 20260507061524 | 42 | 295 | 2.6 | 5.2 | 0.00 | 0.00 | 0.00 | 95 | 1015.4 |
| 20260507061044 | 42 | 287 | 3.5 | 6.1 | 0.00 | 0.00 | 0.00 | 95 | 1014.3 |
| 20260507060541 | 43 | 283 | 1.7 | 4.3 | 0.00 | 0.00 | 0.00 | 95 | 1015.0 |